createdAt,value
2023-05-16T00:00:59.651Z,17.56
2023-05-16T00:04:26.229Z,17.53
2023-05-16T00:07:52.937Z,17.49
2023-05-16T00:10:54.885Z,17.49
2023-05-16T00:13:30.592Z,17.47
2023-05-16T00:16:23.626Z,17.45
2023-05-16T00:19:32.999Z,17.42
2023-05-16T00:22:47.026Z,17.36
2023-05-16T00:25:29.059Z,17.32
2023-05-16T00:29:21.525Z,17.27
2023-05-16T00:32:22.544Z,17.23
2023-05-16T00:36:02.575Z,17.21
2023-05-16T00:39:50.590Z,17.17
2023-05-16T00:43:31.029Z,17.12
2023-05-16T00:47:10.089Z,17.12
2023-05-16T00:50:56.195Z,17.13
2023-05-16T00:54:44.192Z,17.13
2023-05-16T00:58:22.621Z,17.10
2023-05-16T01:02:11.744Z,17.05
2023-05-16T01:05:52.888Z,17.04
2023-05-16T01:09:30.819Z,17.01
2023-05-16T01:13:26.703Z,16.95
2023-05-16T01:16:56.053Z,16.91
2023-05-16T01:20:46.957Z,16.86
2023-05-16T01:24:13.255Z,16.79
2023-05-16T01:27:42.381Z,16.73
2023-05-16T01:31:07.513Z,16.67
2023-05-16T01:34:31.006Z,16.61
2023-05-16T01:38:28.003Z,16.57
2023-05-16T01:42:21.112Z,16.55
2023-05-16T01:46:12.164Z,16.55
2023-05-16T01:50:06.277Z,16.55
2023-05-16T01:53:48.714Z,16.51
2023-05-16T01:56:40.287Z,16.45
2023-05-16T01:59:35.429Z,16.42
2023-05-16T02:03:06.242Z,16.38
2023-05-16T02:06:45.512Z,16.35
2023-05-16T02:09:53.498Z,16.32
2023-05-16T02:13:16.877Z,16.28
2023-05-16T02:16:30.033Z,16.24
2023-05-16T02:20:08.488Z,16.23
2023-05-16T02:23:10.906Z,16.21
2023-05-16T02:26:15.806Z,16.18
2023-05-16T02:29:29.588Z,16.13
2023-05-16T02:32:50.008Z,16.09
2023-05-16T02:36:03.296Z,16.05
2023-05-16T02:39:08.755Z,16.02
2023-05-16T02:42:31.047Z,16.02
2023-05-16T02:45:55.770Z,16.01
2023-05-16T02:49:23.718Z,15.98
2023-05-16T02:53:11.738Z,15.98
2023-05-16T02:56:58.332Z,15.98
2023-05-16T03:00:19.953Z,15.97
2023-05-16T03:03:39.152Z,15.96
2023-05-16T03:07:17.557Z,15.96
2023-05-16T03:10:29.327Z,15.95
2023-05-16T03:14:01.586Z,15.96
2023-05-16T03:17:12.763Z,15.96
2023-05-16T03:20:45.881Z,15.96
2023-05-16T03:23:57.716Z,15.98
2023-05-16T03:27:35.415Z,16.00
2023-05-16T03:30:51.727Z,16.00
2023-05-16T03:34:29.605Z,15.98
2023-05-16T03:37:47.734Z,15.97
2023-05-16T03:41:37.814Z,15.99
2023-05-16T03:45:17.684Z,16.03
2023-05-16T03:48:48.547Z,16.04
2023-05-16T03:52:25.702Z,16.07
2023-05-16T03:55:14.364Z,16.10
2023-05-16T03:58:35.410Z,16.12
2023-05-16T04:01:17.440Z,16.16
2023-05-16T04:04:22.788Z,16.20
2023-05-16T04:07:47.206Z,16.24
2023-05-16T04:10:57.199Z,16.26
2023-05-16T04:14:11.924Z,16.28
2023-05-16T04:17:18.058Z,16.29
2023-05-16T04:21:08.052Z,16.32
2023-05-16T04:24:56.025Z,16.36
2023-05-16T04:28:43.990Z,16.36
2023-05-16T04:32:31.983Z,16.38
2023-05-16T04:36:20.052Z,16.40
2023-05-16T04:40:08.061Z,16.43
2023-05-16T04:43:35.089Z,16.47
2023-05-16T04:47:12.889Z,16.53
2023-05-16T04:50:27.602Z,16.57
2023-05-16T04:54:14.342Z,16.60
2023-05-16T04:57:53.342Z,16.65
2023-05-16T05:01:07.127Z,16.71
2023-05-16T05:04:04.548Z,16.77
2023-05-16T05:07:37.325Z,16.80
2023-05-16T05:11:04.358Z,16.86
2023-05-16T05:14:35.177Z,16.90
2023-05-16T05:17:57.395Z,16.92
2023-05-16T05:21:28.796Z,16.94
2023-05-16T05:24:42.000Z,16.98
2023-05-16T05:28:07.028Z,17.00
2023-05-16T05:31:12.625Z,17.01
2023-05-16T05:34:41.373Z,17.01
2023-05-16T05:38:12.394Z,17.02
2023-05-16T05:41:40.345Z,17.01
2023-05-16T05:44:50.939Z,17.00
2023-05-16T05:48:26.935Z,17.00
2023-05-16T05:52:07.574Z,16.97
2023-05-16T05:55:48.599Z,16.94
2023-05-16T05:59:28.173Z,16.91
2023-05-16T06:02:38.647Z,16.91
2023-05-16T06:05:48.108Z,16.92
2023-05-16T06:08:35.538Z,16.92
2023-05-16T06:11:54.559Z,16.90
2023-05-16T06:15:28.234Z,16.85
2023-05-16T06:19:16.661Z,16.79
2023-05-16T06:22:42.625Z,16.77
2023-05-16T06:26:12.437Z,16.73
2023-05-16T06:29:40.203Z,16.68
2023-05-16T06:33:27.220Z,16.63
2023-05-16T06:37:15.620Z,16.57
2023-05-16T06:40:43.617Z,16.51
2023-05-16T06:44:10.254Z,16.36
2023-05-16T06:47:13.847Z,16.21
2023-05-16T06:50:43.068Z,16.10
2023-05-16T06:54:31.087Z,15.98
2023-05-16T06:58:20.112Z,15.88
2023-05-16T07:02:08.099Z,15.81
2023-05-16T07:05:35.827Z,15.77
2023-05-16T07:09:13.377Z,15.76
2023-05-16T07:12:43.532Z,15.78
2023-05-16T07:16:16.837Z,15.82
2023-05-16T07:19:53.641Z,15.82
2023-05-16T07:23:14.792Z,15.84
2023-05-16T07:26:27.494Z,15.84
2023-05-16T07:30:15.902Z,15.87
2023-05-16T07:33:54.090Z,15.92
2023-05-16T07:37:13.884Z,16.00
2023-05-16T07:40:41.890Z,16.09
2023-05-16T07:44:29.988Z,16.19
2023-05-16T07:48:08.489Z,16.29
2023-05-16T07:51:45.419Z,16.38
2023-05-16T07:55:33.414Z,16.45
2023-05-16T07:59:10.623Z,16.49
2023-05-16T08:02:41.043Z,16.53
2023-05-16T08:06:21.052Z,16.55
2023-05-16T08:10:02.212Z,16.55
2023-05-16T08:13:39.141Z,16.55
2023-05-16T08:17:07.424Z,16.54
2023-05-16T08:20:36.560Z,16.54
2023-05-16T08:24:13.405Z,16.53
2023-05-16T08:28:01.378Z,16.54
2023-05-16T08:31:39.262Z,16.54
2023-05-16T08:35:19.401Z,16.51
2023-05-16T08:39:00.410Z,16.49
2023-05-16T08:42:48.728Z,16.50
2023-05-16T08:46:26.182Z,16.51
2023-05-16T08:50:04.297Z,16.49
2023-05-16T08:53:50.055Z,16.49
2023-05-16T08:57:30.705Z,16.51
2023-05-16T09:01:01.411Z,16.52
2023-05-16T09:04:31.759Z,16.50
2023-05-16T09:08:08.925Z,16.51
2023-05-16T09:11:50.247Z,16.58
2023-05-16T09:15:22.358Z,16.66
2023-05-16T09:19:00.218Z,16.76
2023-05-16T09:22:54.580Z,16.89
2023-05-16T09:26:32.153Z,17.00
2023-05-16T09:30:44.168Z,17.05
2023-05-16T09:34:23.500Z,17.11
2023-05-16T09:38:00.710Z,17.16
2023-05-16T09:41:37.782Z,17.22
2023-05-16T09:45:34.425Z,17.29
2023-05-16T09:49:04.641Z,17.36
2023-05-16T09:52:42.646Z,17.45
2023-05-16T09:56:25.425Z,17.50
2023-05-16T10:00:10.234Z,17.55
2023-05-16T10:04:00.318Z,17.64
2023-05-16T10:07:42.059Z,17.71
2023-05-16T10:11:10.189Z,17.76
2023-05-16T10:14:55.947Z,17.77
2023-05-16T10:18:39.647Z,17.80
2023-05-16T10:22:21.432Z,17.84
2023-05-16T10:26:24.674Z,17.91
2023-05-16T10:30:05.903Z,17.97
2023-05-16T10:33:40.882Z,18.04
2023-05-16T10:37:14.412Z,18.12
2023-05-16T10:40:27.281Z,18.21
2023-05-16T10:44:09.176Z,18.27
2023-05-16T10:47:28.370Z,18.30
2023-05-16T10:51:02.985Z,18.29
2023-05-16T10:54:51.855Z,18.27
2023-05-16T10:58:39.951Z,18.25
2023-05-16T11:02:25.102Z,18.24
2023-05-16T11:09:42.074Z,18.18
2023-05-16T11:12:57.176Z,18.15
2023-05-16T11:16:37.955Z,18.12
2023-05-16T11:20:09.215Z,18.13
2023-05-16T11:23:06.448Z,18.17
2023-05-16T11:26:30.738Z,18.31
2023-05-16T11:29:43.147Z,18.48
2023-05-16T11:33:17.222Z,18.61
2023-05-16T11:36:50.407Z,18.67
2023-05-16T11:40:09.206Z,18.70
2023-05-16T11:43:37.099Z,18.69
2023-05-16T11:47:02.734Z,18.64
2023-05-16T11:50:41.785Z,18.64
2023-05-16T11:54:01.984Z,18.64
2023-05-16T11:57:22.907Z,18.66
2023-05-16T12:00:35.383Z,18.70
2023-05-16T12:03:39.720Z,18.73
2023-05-16T12:06:29.963Z,18.73
2023-05-16T12:09:37.757Z,18.77
2023-05-16T12:13:01.944Z,18.81
2023-05-16T12:15:53.015Z,18.83
2023-05-16T12:19:13.607Z,18.82
2023-05-16T12:22:58.839Z,18.81
2023-05-16T12:25:47.942Z,18.80
2023-05-16T12:29:27.185Z,18.78
2023-05-16T12:33:17.131Z,18.75
2023-05-16T12:36:39.026Z,18.70
2023-05-16T12:39:57.193Z,18.70
2023-05-16T12:43:36.572Z,18.66
2023-05-16T12:46:51.376Z,18.60
2023-05-16T12:50:37.979Z,18.55
2023-05-16T12:54:10.096Z,18.49
2023-05-16T12:57:11.432Z,18.43
2023-05-16T13:00:37.495Z,18.39
2023-05-16T13:03:49.614Z,18.35
2023-05-16T13:07:17.865Z,18.33
2023-05-16T13:10:46.638Z,18.31
2023-05-16T13:15:24.183Z,18.27
2023-05-16T13:18:37.102Z,18.21
2023-05-16T13:22:33.404Z,18.18
2023-05-16T13:26:33.808Z,18.17
2023-05-16T13:30:22.011Z,18.16
2023-05-16T13:34:12.186Z,18.21
2023-05-16T13:37:48.790Z,18.31
2023-05-16T13:41:27.819Z,18.37
2023-05-16T13:45:26.536Z,18.40
2023-05-16T13:48:33.532Z,18.43
2023-05-16T13:52:01.961Z,18.46
2023-05-16T13:55:42.717Z,18.47
2023-05-16T13:59:01.152Z,18.48
2023-05-16T14:02:33.645Z,18.50
2023-05-16T14:06:01.652Z,18.51
2023-05-16T14:09:35.510Z,18.50
2023-05-16T14:12:53.172Z,18.50
2023-05-16T14:16:42.066Z,18.51
2023-05-16T14:20:09.683Z,18.51
2023-05-16T14:23:57.936Z,18.53
2023-05-16T14:27:33.021Z,18.54
2023-05-16T14:30:57.663Z,18.56
2023-05-16T14:34:25.643Z,18.56
2023-05-16T14:38:03.108Z,18.56
2023-05-16T14:41:13.379Z,18.50
2023-05-16T14:44:38.144Z,18.46
2023-05-16T14:48:01.956Z,18.41
2023-05-16T14:51:27.131Z,18.36
2023-05-16T14:54:38.304Z,18.33
2023-05-16T14:58:00.443Z,18.32
2023-05-16T15:01:16.386Z,18.32
2023-05-16T15:04:47.351Z,18.30
2023-05-16T15:08:25.619Z,18.26
2023-05-16T15:11:34.527Z,18.26
2023-05-16T15:14:58.408Z,18.28
2023-05-16T15:18:29.884Z,18.31
2023-05-16T15:22:09.066Z,18.33
2023-05-16T15:25:57.257Z,18.34
2023-05-16T15:29:44.299Z,18.36
2023-05-16T15:33:05.772Z,18.39
2023-05-16T15:36:31.000Z,18.39
2023-05-16T15:40:22.301Z,18.41
2023-05-16T15:44:07.422Z,18.41
2023-05-16T15:47:26.271Z,18.40
2023-05-16T15:51:03.965Z,18.39
2023-05-16T15:54:34.276Z,18.38
2023-05-16T15:58:05.288Z,18.39
2023-05-16T16:01:44.033Z,18.39
2023-05-16T16:04:54.314Z,18.42
2023-05-16T16:08:36.308Z,18.44
2023-05-16T16:11:46.668Z,18.44
2023-05-16T16:15:31.054Z,18.44
2023-05-16T16:19:07.316Z,18.43
2023-05-16T16:22:48.130Z,18.41
2023-05-16T16:26:08.918Z,18.39
2023-05-16T16:29:47.727Z,18.37
2023-05-16T16:32:49.004Z,18.35
2023-05-16T16:36:19.858Z,18.35
2023-05-16T16:39:50.929Z,18.34
2023-05-16T16:43:27.091Z,18.34
2023-05-16T16:46:56.252Z,18.33
2023-05-16T16:50:24.162Z,18.29
2023-05-16T16:53:44.253Z,18.28
2023-05-16T16:57:03.430Z,18.26
2023-05-16T17:00:51.967Z,18.24
2023-05-16T17:04:26.944Z,18.23
2023-05-16T17:07:59.249Z,18.22
2023-05-16T17:11:28.399Z,18.21
2023-05-16T17:14:54.335Z,18.19
2023-05-16T17:18:29.112Z,18.17
2023-05-16T17:21:59.269Z,18.16
2023-05-16T17:25:08.088Z,18.14
2023-05-16T17:28:48.349Z,18.12
2023-05-16T17:32:36.537Z,18.11
2023-05-16T17:36:14.656Z,18.09
2023-05-16T17:39:54.379Z,18.06
2023-05-16T17:43:42.276Z,18.04
2023-05-16T17:47:26.182Z,18.02
2023-05-16T17:50:43.849Z,17.99
2023-05-16T17:53:51.891Z,17.97
2023-05-16T17:57:06.240Z,17.96
2023-05-16T18:00:54.504Z,17.93
2023-05-16T18:04:26.550Z,17.92
2023-05-16T18:07:38.063Z,17.90
2023-05-16T18:10:54.298Z,17.88
2023-05-16T18:14:45.117Z,17.86
2023-05-16T18:18:40.251Z,17.83
2023-05-16T18:22:31.976Z,17.80
2023-05-16T18:26:20.391Z,17.76
2023-05-16T18:30:08.184Z,17.71
2023-05-16T18:33:56.727Z,17.66
2023-05-16T18:37:25.348Z,17.60
2023-05-16T18:41:14.103Z,17.55
2023-05-16T18:44:31.447Z,17.52
2023-05-16T18:47:59.167Z,17.49
2023-05-16T18:51:27.358Z,17.47
2023-05-16T18:54:38.574Z,17.45
2023-05-16T18:57:50.231Z,17.41
2023-05-16T19:01:21.017Z,17.37
2023-05-16T19:04:35.276Z,17.32
2023-05-16T19:07:57.852Z,17.28
2023-05-16T19:11:19.037Z,17.24
2023-05-16T19:14:50.484Z,17.17
2023-05-16T19:18:39.488Z,17.12
2023-05-16T19:22:09.766Z,17.06
2023-05-16T19:25:49.597Z,17.03
2023-05-16T19:29:41.730Z,17.00
2023-05-16T19:32:56.493Z,16.97
2023-05-16T19:36:19.269Z,16.95
2023-05-16T19:40:07.427Z,16.93
2023-05-16T19:43:41.677Z,16.92
2023-05-16T19:46:47.730Z,16.91
2023-05-16T19:50:15.963Z,16.90
2023-05-16T19:53:10.084Z,16.89
2023-05-16T19:55:38.302Z,16.86
2023-05-16T19:58:49.556Z,16.84
2023-05-16T20:02:21.170Z,16.80
2023-05-16T20:06:08.251Z,16.75
2023-05-16T20:09:22.525Z,16.72
2023-05-16T20:12:49.881Z,16.66
2023-05-16T20:16:05.683Z,16.60
2023-05-16T20:19:36.590Z,16.55
2023-05-16T20:23:06.024Z,16.51
2023-05-16T20:26:39.596Z,16.47
2023-05-16T20:30:07.017Z,16.43
2023-05-16T20:33:49.207Z,16.40
2023-05-16T20:37:31.673Z,16.36
2023-05-16T20:41:12.548Z,16.32
2023-05-16T20:45:01.006Z,16.29
2023-05-16T20:48:13.463Z,16.26
2023-05-16T20:51:41.684Z,16.23
2023-05-16T20:55:26.760Z,16.21
2023-05-16T20:58:55.004Z,16.17
2023-05-16T21:02:06.214Z,16.12
2023-05-16T21:05:41.230Z,16.10
2023-05-16T21:09:06.308Z,16.09
2023-05-16T21:12:02.684Z,16.06
2023-05-16T21:15:06.159Z,16.05
2023-05-16T21:17:52.177Z,16.02
2023-05-16T21:20:50.238Z,16.00
2023-05-16T21:24:18.500Z,15.97
2023-05-16T21:27:25.902Z,15.94
2023-05-16T21:31:15.542Z,15.92
2023-05-16T21:33:56.493Z,15.89
2023-05-16T21:37:01.563Z,15.88
2023-05-16T21:39:42.774Z,15.87
2023-05-16T21:43:14.240Z,15.87
2023-05-16T21:46:35.372Z,15.87
2023-05-16T21:50:03.329Z,15.88
2023-05-16T21:53:08.673Z,15.88
2023-05-16T21:56:32.522Z,15.89
2023-05-16T21:59:53.767Z,15.89
2023-05-16T22:03:21.055Z,15.87
2023-05-16T22:05:54.410Z,15.84
2023-05-16T22:08:23.963Z,15.81
2023-05-16T22:11:11.736Z,15.77
2023-05-16T22:13:47.426Z,15.71
2023-05-16T22:16:58.239Z,15.63
2023-05-16T22:20:09.093Z,15.57
2023-05-16T22:23:31.290Z,15.51
2023-05-16T22:26:23.474Z,15.45
2023-05-16T22:29:35.177Z,15.38
2023-05-16T22:32:43.207Z,15.30
2023-05-16T22:36:06.742Z,15.23
2023-05-16T22:39:15.157Z,15.12
2023-05-16T22:43:03.246Z,15.04
2023-05-16T22:46:51.337Z,14.94
2023-05-16T22:50:40.875Z,14.89
2023-05-16T22:54:28.855Z,14.86
2023-05-16T22:58:16.838Z,14.84
2023-05-16T23:01:53.870Z,14.84
2023-05-16T23:05:24.424Z,14.84
2023-05-16T23:08:46.989Z,14.86
2023-05-16T23:12:21.483Z,14.88
2023-05-16T23:15:59.703Z,14.89
2023-05-16T23:19:30.836Z,14.87
2023-05-16T23:23:11.572Z,14.87
2023-05-16T23:26:27.802Z,14.89
2023-05-16T23:30:05.671Z,14.89
2023-05-16T23:33:26.379Z,14.89
2023-05-16T23:36:46.115Z,14.90
2023-05-16T23:39:58.632Z,14.93
2023-05-16T23:43:06.673Z,14.96
2023-05-16T23:46:17.576Z,14.99
2023-05-16T23:49:44.730Z,15.04
2023-05-16T23:53:02.705Z,15.10
2023-05-16T23:56:50.882Z,15.17
